LiveATC.Net - Listen to live air traffic control over the Internet!


ICAO: VTSS  IATA: HDY   Airport: Hat Yai International Airport
City: Songkhla
Country: Thailand   Continent: Asia
VTSS METAR Weather: VTSS 110830Z 24008KT 9999 FEW020 33/23 Q1005 NOSIG
VTSS Flight Activity (FlightAware)

VTSS Approach
Feed Status: UP   Listeners: 1
Listen in your browser - HTML5 player (in browser, HTML5)
Click here to listen with your own player (launches your MP3 player)
Archive Access: VTSS Approach
FacilityFrequency
Hat Yai Approach126.700

NOTICE

Unauthorized use prohibited. See LiveATC.net Terms of Service


Airport/ARTCC Code
Frequency Search
(e.g., 124.400, 128.75)
Site-wide search
 


Browse Feeds
Top 50 Feeds
HF Oceanic Feeds
Coverage Map
Bad Weather Areas

LiveATC FAQ
Offer LiveATC feed
Contact LiveATC.net
Press Inquiries

LiveATC on iPhone
LiveATC on Android

LiveATC Mobile
(Mobile browser)

ATC Audio Archives
Interesting Recordings

LiveATC Forums


Home Page
About LiveATC.net


Terms of Use
Privacy Policy

AIRMETs/SIGMETs

FAA Airport Status
NAS Status
Arrival Demand


Server Software By:
Icecast.org
Liquidsoap